Time;durP1;ratioP1;P1;durP2;ratioP2;P2;SDS_P1;SDS_P2;PMS_P1;PMS_P2;Temp;Humidity;BMP_temperature;BMP_pressure;BME280_temperature;BME280_humidity;BME280_pressure;Samples;Min_cycle;Max_cycle;Signal;HPM_P1;HPM_P2
2023/12/28 06:00:19;;;;;;;2.60;2.40;;;;;;;;;;1741751;28;20620;-78
2023/12/28 06:01:10;;;;;;;1.95;1.52;;;;;;;;;;1742339;28;20238;-78
2023/12/28 06:02:02;;;;;;;2.15;1.70;;;;;;;;;;1742349;28;20274;-79
2023/12/28 06:02:54;;;;;;;2.58;2.30;;;;;;;;;;1742314;28;20195;-79
2023/12/28 06:03:45;;;;;;;4.00;2.20;;;;;;;;;;1742065;28;20199;-79
2023/12/28 06:04:37;;;;;;;3.33;2.03;;;;;;;;;;1742444;28;20195;-79
2023/12/28 06:05:28;;;;;;;2.85;2.40;;;;;;;;;;1742387;28;20202;-79
2023/12/28 06:06:20;;;;;;;3.10;1.83;;;;;;;;;;1739846;28;20226;-79
2023/12/28 06:07:11;;;;;;;2.50;1.95;;;;;;;;;;1742686;28;20215;-79
2023/12/28 06:08:03;;;;;;;2.47;1.80;;;;;;;;;;1742361;28;20191;-79
2023/12/28 06:08:55;;;;;;;2.95;2.33;;;;;;;;;;1742684;28;20199;-79
2023/12/28 06:09:46;;;;;;;4.72;3.30;;;;;;;;;;1742728;28;20203;-79
2023/12/28 06:10:38;;;;;;;4.20;2.50;;;;;;;;;;1742899;28;20618;-78
2023/12/28 06:11:30;;;;;;;3.08;2.35;;;;;;;;;;1742701;28;20199;-79
2023/12/28 06:12:22;;;;;;;3.13;2.60;;;;;;;;;;1740000;28;20194;-79
2023/12/28 06:13:13;;;;;;;3.60;2.53;;;;;;;;;;1742290;28;20760;-79
2023/12/28 06:14:04;;;;;;;3.35;2.30;;;;;;;;;;1742387;28;20712;-79
2023/12/28 06:14:56;;;;;;;2.53;1.80;;;;;;;;;;1742323;28;20225;-79
2023/12/28 06:15:48;;;;;;;2.75;2.35;;;;;;;;;;1742463;28;20702;-79
2023/12/28 06:16:40;;;;;;;3.80;3.13;;;;;;;;;;1742410;28;20675;-79
2023/12/28 06:17:32;;;;;;;3.67;2.70;;;;;;;;;;1742497;28;20211;-79
2023/12/28 06:18:23;;;;;;;3.22;2.50;;;;;;;;;;1742107;28;20663;-79
2023/12/28 06:19:15;;;;;;;2.78;2.47;;;;;;;;;;1741879;28;20187;-79
2023/12/28 06:20:08;;;;;;;2.72;2.33;;;;;;;;;;1742150;28;20562;-79
2023/12/28 06:21:00;;;;;;;2.63;2.42;;;;;;;;;;1742221;28;20270;-79
2023/12/28 06:21:51;;;;;;;3.15;2.50;;;;;;;;;;1742212;28;20804;-79
2023/12/28 06:22:42;;;;;;;2.40;2.20;;;;;;;;;;1742522;28;20221;-79
2023/12/28 06:23:34;;;;;;;4.25;2.30;;;;;;;;;;1741767;28;20225;-79
2023/12/28 06:24:25;;;;;;;4.32;2.45;;;;;;;;;;1742411;28;20207;-79
2023/12/28 06:25:17;;;;;;;2.72;2.10;;;;;;;;;;1742672;28;20200;-79
2023/12/28 06:26:09;;;;;;;2.83;2.40;;;;;;;;;;1743674;28;20202;-79
2023/12/28 06:27:00;;;;;;;2.30;2.05;;;;;;;;;;1739388;28;20244;-79
2023/12/28 06:27:51;;;;;;;2.40;2.15;;;;;;;;;;1742171;28;20666;-80
2023/12/28 06:28:43;;;;;;;3.20;2.58;;;;;;;;;;1741975;28;20273;-79
2023/12/28 06:29:35;;;;;;;3.08;1.80;;;;;;;;;;1742300;28;20562;-79
2023/12/28 06:30:26;;;;;;;3.22;2.28;;;;;;;;;;1742347;28;20199;-79
2023/12/28 06:31:19;;;;;;;3.90;2.30;;;;;;;;;;1742317;28;20195;-79
2023/12/28 06:32:10;;;;;;;4.03;2.78;;;;;;;;;;1741931;28;20203;-79
2023/12/28 06:33:01;;;;;;;4.00;2.60;;;;;;;;;;1742417;28;20195;-79
2023/12/28 06:33:53;;;;;;;2.67;1.85;;;;;;;;;;1742130;28;20219;-80
2023/12/28 06:34:44;;;;;;;3.28;1.73;;;;;;;;;;1742324;28;20207;-79
2023/12/28 06:35:35;;;;;;;2.97;2.20;;;;;;;;;;1742538;28;20191;-79
2023/12/28 06:36:27;;;;;;;3.08;2.45;;;;;;;;;;1742329;28;20219;-79
2023/12/28 06:37:19;;;;;;;2.30;1.85;;;;;;;;;;1742561;28;20203;-79
2023/12/28 06:38:10;;;;;;;3.20;1.90;;;;;;;;;;1742087;28;20592;-79
2023/12/28 06:39:02;;;;;;;1.92;1.73;;;;;;;;;;1736693;28;20224;-79
2023/12/28 06:39:53;;;;;;;2.33;1.58;;;;;;;;;;1742859;28;20203;-79
2023/12/28 06:40:44;;;;;;;2.15;1.85;;;;;;;;;;1742821;28;20207;-79
2023/12/28 06:41:36;;;;;;;1.77;1.60;;;;;;;;;;1742818;28;20207;-78
2023/12/28 06:42:27;;;;;;;2.10;1.60;;;;;;;;;;1746213;28;20203;-78
2023/12/28 06:43:18;;;;;;;1.88;1.73;;;;;;;;;;1747925;28;20202;-79
2023/12/28 06:44:14;;;;;;;2.17;1.75;;;;;;;;;;1747243;28;20195;-79
2023/12/28 06:45:06;;;;;;;2.83;1.40;;;;;;;;;;1742595;28;20688;-79
2023/12/28 06:45:57;;;;;;;2.28;2.08;;;;;;;;;;1740966;28;20195;-79
2023/12/28 06:46:50;;;;;;;2.60;2.40;;;;;;;;;;1735511;28;20204;-79
2023/12/28 06:47:41;;;;;;;3.33;2.90;;;;;;;;;;1735419;28;20207;-79
2023/12/28 06:48:32;;;;;;;4.97;2.78;;;;;;;;;;1735289;28;20743;-79
2023/12/28 06:49:25;;;;;;;3.63;2.53;;;;;;;;;;1740304;28;20278;-79
2023/12/28 06:50:16;;;;;;;3.35;2.55;;;;;;;;;;1742418;28;20215;-79
2023/12/28 06:51:08;;;;;;;2.88;2.60;;;;;;;;;;1742426;28;20600;-79
2023/12/28 06:51:59;;;;;;;4.28;2.42;;;;;;;;;;1743799;28;20282;-79
2023/12/28 06:52:50;;;;;;;3.28;2.25;;;;;;;;;;1743966;28;20213;-78
2023/12/28 06:53:42;;;;;;;1.63;1.52;;;;;;;;;;1747494;28;20198;-79
2023/12/28 06:54:34;;;;;;;2.47;1.92;;;;;;;;;;1743600;28;20579;-79
2023/12/28 06:55:25;;;;;;;1.50;1.40;;;;;;;;;;1742689;28;20630;-79
2023/12/28 06:56:17;;;;;;;1.85;1.50;;;;;;;;;;1736522;28;20202;-78
2023/12/28 06:57:08;;;;;;;2.13;1.50;;;;;;;;;;1748812;28;20202;-78
2023/12/28 06:57:59;;;;;;;4.28;1.65;;;;;;;;;;1743487;28;20198;-80
2023/12/28 06:58:51;;;;;;;2.03;1.35;;;;;;;;;;1743358;28;20241;-80
2023/12/28 06:59:42;;;;;;;1.65;1.50;;;;;;;;;;1746511;28;20213;-79
2023/12/28 07:00:33;;;;;;;1.65;1.38;;;;;;;;;;1750285;28;20203;-79
2023/12/28 07:01:25;;;;;;;2.20;1.63;;;;;;;;;;1747118;28;20199;-79
2023/12/28 07:02:18;;;;;;;1.83;1.50;;;;;;;;;;1743984;28;20206;-79
2023/12/28 07:03:09;;;;;;;1.80;1.52;;;;;;;;;;1742562;28;20199;-79
2023/12/28 07:04:01;;;;;;;2.08;1.35;;;;;;;;;;1737457;28;20286;-80
2023/12/28 07:04:52;;;;;;;1.55;1.38;;;;;;;;;;1737537;28;20222;-80
2023/12/28 07:05:43;;;;;;;2.95;1.77;;;;;;;;;;1744450;28;20636;-79
2023/12/28 07:06:35;;;;;;;1.80;1.45;;;;;;;;;;1743873;28;20267;-79
2023/12/28 07:07:27;;;;;;;2.85;1.73;;;;;;;;;;1749556;28;20225;-79
2023/12/28 07:08:18;;;;;;;2.13;1.70;;;;;;;;;;1750551;28;20683;-79
2023/12/28 07:09:10;;;;;;;4.97;2.03;;;;;;;;;;1748176;28;20206;-80
2023/12/28 07:10:01;;;;;;;3.13;2.45;;;;;;;;;;1744312;28;20195;-79
2023/12/28 07:10:52;;;;;;;3.90;2.72;;;;;;;;;;1746223;28;20341;-79
2023/12/28 07:11:44;;;;;;;4.35;3.20;;;;;;;;;;1751242;28;20217;-80
2023/12/28 07:12:35;;;;;;;4.20;3.13;;;;;;;;;;1749493;28;20206;-79
2023/12/28 07:13:27;;;;;;;4.72;3.45;;;;;;;;;;1744145;28;20293;-79
2023/12/28 07:14:18;;;;;;;4.00;3.20;;;;;;;;;;1744401;28;20223;-79
2023/12/28 07:15:13;;;;;;;2.92;2.17;;;;;;;;;;1737108;28;20283;-79
2023/12/28 07:16:07;;;;;;;2.22;2.00;;;;;;;;;;1737141;28;20232;-79
2023/12/28 07:16:58;;;;;;;2.80;2.42;;;;;;;;;;1742873;28;20254;-79
2023/12/28 07:17:51;;;;;;;3.13;1.88;;;;;;;;;;1743857;28;20203;-79
2023/12/28 07:18:43;;;;;;;2.10;1.88;;;;;;;;;;1739891;28;20671;-79
2023/12/28 07:19:34;;;;;;;3.00;1.50;;;;;;;;;;1745412;28;20214;-79
2023/12/28 07:20:25;;;;;;;2.05;1.50;;;;;;;;;;1743846;28;20825;-79
2023/12/28 07:21:17;;;;;;;3.25;2.47;;;;;;;;;;1743901;28;20218;-79
2023/12/28 07:22:08;;;;;;;2.22;1.48;;;;;;;;;;1742918;28;20611;-79
2023/12/28 07:22:59;;;;;;;1.50;1.35;;;;;;;;;;1737002;28;20199;-79
2023/12/28 07:23:51;;;;;;;2.65;1.95;;;;;;;;;;1737427;28;20234;-79
2023/12/28 07:24:42;;;;;;;2.58;1.95;;;;;;;;;;1744072;28;20226;-80
2023/12/28 07:25:34;;;;;;;1.90;1.80;;;;;;;;;;1744048;28;20730;-81
2023/12/28 07:26:25;;;;;;;4.05;1.73;;;;;;;;;;1745590;28;20231;-81
2023/12/28 07:27:18;;;;;;;3.67;2.08;;;;;;;;;;1746800;28;20293;-81
2023/12/28 07:28:09;;;;;;;4.10;3.38;;;;;;;;;;1749101;28;20207;-80
2023/12/28 07:29:00;;;;;;;5.43;3.50;;;;;;;;;;1754626;28;20218;-79
2023/12/28 07:29:52;;;;;;;4.85;3.30;;;;;;;;;;1745975;28;20191;-80
2023/12/28 07:30:43;;;;;;;5.50;3.45;;;;;;;;;;1747300;28;20210;-80
2023/12/28 07:31:35;;;;;;;5.90;3.55;;;;;;;;;;1746742;28;20226;-80
2023/12/28 07:32:26;;;;;;;4.97;3.00;;;;;;;;;;1749975;28;20209;-79
2023/12/28 07:33:19;;;;;;;4.03;2.90;;;;;;;;;;1754258;28;20199;-81
2023/12/28 07:34:11;;;;;;;3.35;3.05;;;;;;;;;;1745792;28;20211;-82
2023/12/28 07:35:02;;;;;;;3.85;2.97;;;;;;;;;;1745341;28;20214;-81
2023/12/28 07:35:54;;;;;;;3.88;3.15;;;;;;;;;;1740604;28;20204;-79
2023/12/28 07:36:45;;;;;;;3.08;2.88;;;;;;;;;;1751719;28;20203;-82
2023/12/28 07:37:36;;;;;;;3.38;2.95;;;;;;;;;;1747576;28;20207;-83
2023/12/28 07:38:28;;;;;;;3.17;2.88;;;;;;;;;;1743956;28;20222;-82
2023/12/28 07:39:19;;;;;;;3.33;3.03;;;;;;;;;;1743649;28;20210;-83
2023/12/28 07:40:12;;;;;;;3.92;3.10;;;;;;;;;;1747928;28;20221;-83
2023/12/28 07:41:04;;;;;;;3.90;3.60;;;;;;;;;;1750818;28;20219;-81
2023/12/28 07:41:55;;;;;;;4.57;3.53;;;;;;;;;;1746558;28;20202;-82
2023/12/28 07:42:46;;;;;;;3.60;3.30;;;;;;;;;;1746505;28;20199;-82
2023/12/28 07:43:38;;;;;;;4.78;4.03;;;;;;;;;;1746911;28;20200;-82
2023/12/28 07:44:29;;;;;;;3.78;3.00;;;;;;;;;;1747298;28;20199;-82
2023/12/28 07:45:23;;;;;;;3.40;3.10;;;;;;;;;;1744593;28;20632;-82
2023/12/28 07:46:15;;;;;;;4.10;3.38;;;;;;;;;;1742073;28;20193;-82
2023/12/28 07:47:06;;;;;;;3.28;2.97;;;;;;;;;;1745727;28;20199;-82
2023/12/28 07:47:57;;;;;;;3.35;2.83;;;;;;;;;;1737874;28;20253;-81
2023/12/28 07:48:50;;;;;;;3.90;3.50;;;;;;;;;;1746688;28;20230;-81
2023/12/28 07:49:42;;;;;;;4.78;3.30;;;;;;;;;;1743562;28;20210;-82
2023/12/28 07:50:33;;;;;;;3.55;3.25;;;;;;;;;;1749424;28;20194;-84
2023/12/28 07:51:25;;;;;;;3.00;2.70;;;;;;;;;;1736700;28;20192;-84
2023/12/28 07:52:16;;;;;;;4.53;3.05;;;;;;;;;;1749665;28;20202;-83
2023/12/28 07:53:08;;;;;;;3.15;2.90;;;;;;;;;;1744315;28;20214;-83
2023/12/28 07:54:00;;;;;;;3.35;2.90;;;;;;;;;;1742041;28;20242;-84
2023/12/28 07:54:52;;;;;;;3.08;2.72;;;;;;;;;;1741885;28;20229;-84
2023/12/28 07:55:43;;;;;;;2.90;2.70;;;;;;;;;;1746094;28;20574;-82
2023/12/28 07:56:34;;;;;;;2.88;2.30;;;;;;;;;;1745971;28;20200;-81
2023/12/28 07:57:26;;;;;;;4.10;2.63;;;;;;;;;;1746099;28;20191;-81
2023/12/28 07:58:17;;;;;;;2.60;2.40;;;;;;;;;;1742489;28;20671;-83
2023/12/28 07:59:09;;;;;;;3.40;1.80;;;;;;;;;;1744707;28;20199;-83
2023/12/28 08:00:01;;;;;;;2.33;2.13;;;;;;;;;;1744978;28;20187;-83
2023/12/28 08:00:52;;;;;;;2.30;2.10;;;;;;;;;;1751514;28;20219;-82
2023/12/28 08:01:43;;;;;;;3.25;2.05;;;;;;;;;;1746873;28;20231;-81
2023/12/28 08:02:35;;;;;;;1.92;1.50;;;;;;;;;;1741688;28;20206;-79
2023/12/28 08:03:26;;;;;;;3.97;1.80;;;;;;;;;;1741380;28;20699;-80
2023/12/28 08:04:19;;;;;;;3.30;2.17;;;;;;;;;;1738914;28;20210;-78
2023/12/28 08:05:11;;;;;;;3.03;2.35;;;;;;;;;;1734994;28;20227;-78
2023/12/28 08:06:02;;;;;;;3.38;2.22;;;;;;;;;;1736223;28;20204;-78
2023/12/28 08:06:53;;;;;;;2.72;2.53;;;;;;;;;;1741967;28;20831;-79
2023/12/28 08:07:45;;;;;;;2.55;2.33;;;;;;;;;;1742149;28;20252;-79
2023/12/28 08:08:37;;;;;;;3.53;2.90;;;;;;;;;;1734830;28;20204;-79
2023/12/28 08:09:28;;;;;;;2.75;2.55;;;;;;;;;;1739237;28;20250;-80
2023/12/28 08:10:20;;;;;;;2.85;2.40;;;;;;;;;;1743697;28;20234;-81
2023/12/28 08:11:12;;;;;;;3.03;2.40;;;;;;;;;;1742737;28;20219;-80
2023/12/28 08:12:04;;;;;;;2.03;1.65;;;;;;;;;;1738492;28;20266;-79
2023/12/28 08:12:55;;;;;;;2.80;2.60;;;;;;;;;;1735360;28;20203;-79
2023/12/28 08:13:48;;;;;;;2.50;2.30;;;;;;;;;;1737716;28;20211;-78
2023/12/28 08:14:39;;;;;;;2.40;2.20;;;;;;;;;;1747071;28;20588;-78
2023/12/28 08:15:31;;;;;;;2.10;1.90;;;;;;;;;;1746931;28;20711;-78
2023/12/28 08:16:23;;;;;;;3.60;2.63;;;;;;;;;;1742058;28;20211;-79
2023/12/28 08:17:14;;;;;;;3.35;2.67;;;;;;;;;;1741699;28;20221;-77
2023/12/28 08:18:06;;;;;;;2.17;1.90;;;;;;;;;;1734550;28;20229;-77
2023/12/28 08:18:57;;;;;;;2.10;1.90;;;;;;;;;;1735369;28;20200;-80
2023/12/28 08:19:50;;;;;;;4.43;2.33;;;;;;;;;;1740150;28;20205;-79
2023/12/28 08:20:41;;;;;;;3.10;2.08;;;;;;;;;;1741502;28;20199;-78
2023/12/28 08:21:32;;;;;;;2.33;1.90;;;;;;;;;;1741630;28;20558;-79
2023/12/28 08:22:25;;;;;;;3.22;2.00;;;;;;;;;;1741538;28;20253;-79
2023/12/28 08:23:16;;;;;;;2.85;2.25;;;;;;;;;;1741607;28;20226;-79
2023/12/28 08:24:07;;;;;;;3.17;2.53;;;;;;;;;;1741947;28;20695;-77
2023/12/28 08:24:59;;;;;;;2.35;2.15;;;;;;;;;;1740993;28;20195;-80
2023/12/28 08:25:50;;;;;;;2.45;2.17;;;;;;;;;;1735426;28;20204;-77
2023/12/28 08:26:41;;;;;;;2.80;2.30;;;;;;;;;;1734998;28;20711;-80
2023/12/28 08:27:33;;;;;;;4.03;2.70;;;;;;;;;;1742760;28;20210;-80
2023/12/28 08:28:24;;;;;;;2.00;1.80;;;;;;;;;;1742387;28;20199;-78
2023/12/28 08:29:15;;;;;;;3.92;2.13;;;;;;;;;;1737698;28;20265;-78
2023/12/28 08:30:08;;;;;;;3.50;2.35;;;;;;;;;;1742683;28;20214;-79
2023/12/28 08:30:59;;;;;;;3.53;2.67;;;;;;;;;;1745004;28;20245;-80
2023/12/28 08:31:50;;;;;;;3.65;2.60;;;;;;;;;;1744843;28;20226;-80
2023/12/28 08:32:43;;;;;;;4.28;2.20;;;;;;;;;;1741614;28;20660;-79
2023/12/28 08:33:35;;;;;;;8.65;2.63;;;;;;;;;;1735507;28;20208;-79
2023/12/28 08:34:27;;;;;;;3.17;2.80;;;;;;;;;;1735669;28;20203;-80
2023/12/28 08:35:20;;;;;;;2.70;2.30;;;;;;;;;;1741705;28;20547;-77
2023/12/28 08:36:11;;;;;;;3.72;2.60;;;;;;;;;;1741511;28;20231;-77
2023/12/28 08:37:04;;;;;;;4.55;2.20;;;;;;;;;;1735226;28;20204;-77
2023/12/28 08:37:55;;;;;;;2.20;1.85;;;;;;;;;;1734561;28;20579;-78
2023/12/28 08:38:47;;;;;;;2.95;2.22;;;;;;;;;;1739160;28;20265;-78
2023/12/28 08:39:40;;;;;;;2.53;2.05;;;;;;;;;;1741342;28;20206;-78
2023/12/28 08:40:31;;;;;;;3.70;2.25;;;;;;;;;;1741378;28;20210;-77
2023/12/28 08:41:24;;;;;;;3.45;2.40;;;;;;;;;;1741516;28;20334;-78
2023/12/28 08:42:15;;;;;;;2.30;1.98;;;;;;;;;;1739410;28;20207;-79
2023/12/28 08:43:07;;;;;;;4.93;2.22;;;;;;;;;;1734607;28;20222;-78
2023/12/28 08:43:59;;;;;;;3.13;2.17;;;;;;;;;;1735059;28;20207;-78
2023/12/28 08:44:50;;;;;;;2.70;2.30;;;;;;;;;;1744806;28;20605;-79
2023/12/28 08:45:42;;;;;;;2.80;2.20;;;;;;;;;;1748317;28;20285;-78
2023/12/28 08:46:33;;;;;;;4.38;2.38;;;;;;;;;;1742058;28;20215;-79
2023/12/28 08:47:24;;;;;;;3.97;2.35;;;;;;;;;;1741519;28;20252;-78
2023/12/28 08:48:16;;;;;;;2.55;1.90;;;;;;;;;;1736496;28;20290;-78
2023/12/28 08:49:07;;;;;;;2.45;2.00;;;;;;;;;;1734506;28;20598;-79
2023/12/28 08:49:59;;;;;;;4.60;2.08;;;;;;;;;;1740071;28;20192;-79
2023/12/28 08:50:52;;;;;;;3.20;1.70;;;;;;;;;;1741385;28;20597;-78
2023/12/28 08:51:43;;;;;;;3.95;2.38;;;;;;;;;;1739815;28;20211;-79
2023/12/28 08:52:35;;;;;;;2.45;2.03;;;;;;;;;;1734489;28;20274;-78
2023/12/28 08:53:26;;;;;;;2.35;1.98;;;;;;;;;;1734568;28;20591;-79
2023/12/28 08:54:18;;;;;;;2.53;1.90;;;;;;;;;;1741307;28;20265;-77
2023/12/28 08:55:09;;;;;;;2.03;1.80;;;;;;;;;;1741365;28;20219;-79
2023/12/28 08:56:00;;;;;;;2.70;2.00;;;;;;;;;;1735885;28;20581;-79
2023/12/28 08:56:53;;;;;;;2.53;2.10;;;;;;;;;;1734538;28;20578;-79
2023/12/28 08:57:44;;;;;;;2.20;2.00;;;;;;;;;;1738486;28;20210;-78
2023/12/28 08:58:36;;;;;;;3.25;2.17;;;;;;;;;;1741016;28;20567;-78
2023/12/28 08:59:27;;;;;;;4.35;2.15;;;;;;;;;;1739775;28;20202;-79
2023/12/28 09:00:19;;;;;;;2.20;2.00;;;;;;;;;;1741335;28;20199;-78
2023/12/28 09:01:15;;;;;;;4.57;2.22;;;;;;;;;;1742686;28;20226;-78
2023/12/28 09:02:07;;;;;;;2.78;2.05;;;;;;;;;;1741447;28;20538;-78
2023/12/28 09:02:59;;;;;;;3.40;1.80;;;;;;;;;;1741324;28;20282;-79
2023/12/28 09:03:50;;;;;;;3.85;2.33;;;;;;;;;;1734438;28;20216;-78
2023/12/28 09:04:41;;;;;;;2.17;1.70;;;;;;;;;;1734501;28;20204;-78
2023/12/28 09:05:35;;;;;;;2.35;1.65;;;;;;;;;;1740044;28;20230;-79
2023/12/28 09:06:28;;;;;;;3.55;2.00;;;;;;;;;;1741338;28;20203;-79
2023/12/28 09:07:20;;;;;;;2.05;1.70;;;;;;;;;;1736699;28;20242;-78
2023/12/28 09:08:11;;;;;;;2.33;1.85;;;;;;;;;;1734020;28;20204;-78
2023/12/28 09:09:03;;;;;;;2.13;1.92;;;;;;;;;;1737430;28;20293;-79
2023/12/28 09:09:55;;;;;;;2.35;1.80;;;;;;;;;;1741088;28;20221;-79
2023/12/28 09:10:46;;;;;;;4.25;1.85;;;;;;;;;;1741227;28;20587;-79
2023/12/28 09:11:38;;;;;;;2.17;1.77;;;;;;;;;;1741196;28;20199;-78
2023/12/28 09:12:30;;;;;;;3.55;2.00;;;;;;;;;;1741329;28;20555;-78
2023/12/28 09:13:21;;;;;;;2.50;2.00;;;;;;;;;;1734398;28;20203;-79
2023/12/28 09:14:12;;;;;;;2.60;1.80;;;;;;;;;;1733978;28;20204;-78
2023/12/28 09:15:05;;;;;;;2.60;2.00;;;;;;;;;;1739771;28;20707;-78
2023/12/28 09:15:56;;;;;;;2.80;1.90;;;;;;;;;;1741172;28;20199;-79
2023/12/28 09:16:47;;;;;;;3.28;1.73;;;;;;;;;;1737128;28;20650;-78
2023/12/28 09:17:40;;;;;;;2.65;1.52;;;;;;;;;;1738046;28;20338;-77
2023/12/28 09:18:31;;;;;;;2.63;2.25;;;;;;;;;;1745676;28;20207;-78
2023/12/28 09:19:24;;;;;;;5.70;2.05;;;;;;;;;;1747591;28;20282;-78
2023/12/28 09:20:15;;;;;;;3.80;1.98;;;;;;;;;;1741057;28;20199;-78
2023/12/28 09:21:06;;;;;;;3.08;2.30;;;;;;;;;;1741155;28;20699;-78
2023/12/28 09:22:00;;;;;;;2.40;2.20;;;;;;;;;;1741206;28;20567;-78
2023/12/28 09:22:56;;;;;;;3.22;2.75;;;;;;;;;;1742903;28;20218;-82
2023/12/28 09:23:48;;;;;;;2.80;2.40;;;;;;;;;;1743109;28;20201;-80
2023/12/28 09:24:39;;;;;;;2.70;2.40;;;;;;;;;;1736479;28;20571;-80
2023/12/28 09:25:30;;;;;;;3.00;2.45;;;;;;;;;;1734469;28;20200;-78
2023/12/28 09:26:22;;;;;;;4.25;2.50;;;;;;;;;;1738670;28;20288;-79
2023/12/28 09:27:13;;;;;;;2.45;2.20;;;;;;;;;;1741256;28;20313;-79
2023/12/28 09:28:04;;;;;;;2.85;2.55;;;;;;;;;;1738020;28;20594;-78
2023/12/28 09:28:57;;;;;;;3.25;2.40;;;;;;;;;;1734320;28;20226;-79
2023/12/28 09:29:48;;;;;;;2.90;2.10;;;;;;;;;;1737574;28;20954;-79
2023/12/28 09:30:39;;;;;;;3.47;1.90;;;;;;;;;;1741014;28;20655;-78
2023/12/28 09:31:31;;;;;;;2.35;2.15;;;;;;;;;;1740957;28;20203;-80
2023/12/28 09:32:22;;;;;;;3.40;2.15;;;;;;;;;;1734394;28;20211;-79
2023/12/28 09:33:13;;;;;;;2.60;2.17;;;;;;;;;;1734233;28;20208;-79
2023/12/28 09:34:05;;;;;;;2.53;2.00;;;;;;;;;;1742124;28;20199;-79
2023/12/28 09:34:57;;;;;;;2.95;2.08;;;;;;;;;;1747957;28;20662;-78
2023/12/28 09:35:50;;;;;;;2.38;1.83;;;;;;;;;;1744166;28;20211;-79
2023/12/28 09:36:41;;;;;;;2.15;1.67;;;;;;;;;;1741139;28;20214;-78
2023/12/28 09:37:34;;;;;;;2.60;2.10;;;;;;;;;;1741295;28;20209;-78
2023/12/28 09:38:27;;;;;;;2.17;1.98;;;;;;;;;;1747912;28;20248;-78
2023/12/28 09:39:19;;;;;;;4.20;1.95;;;;;;;;;;1746739;28;20677;-79
2023/12/28 09:40:12;;;;;;;3.30;1.70;;;;;;;;;;1740955;28;20647;-78
2023/12/28 09:41:08;;;;;;;2.70;2.10;;;;;;;;;;1741051;28;20226;-78
2023/12/28 09:42:00;;;;;;;3.17;2.00;;;;;;;;;;1739320;28;20852;-78
2023/12/28 09:42:57;;;;;;;1.50;1.40;;;;;;;;;;1741501;28;20202;-77
2023/12/28 09:43:51;;;;;;;2.75;2.05;;;;;;;;;;1734404;28;20593;-79
2023/12/28 09:44:43;;;;;;;4.70;1.70;;;;;;;;;;1734218;28;20568;-79
2023/12/28 09:45:35;;;;;;;2.22;1.80;;;;;;;;;;1734195;28;20222;-78
2023/12/28 09:46:27;;;;;;;2.95;1.98;;;;;;;;;;1734309;28;20212;-78
2023/12/28 09:47:18;;;;;;;2.90;1.80;;;;;;;;;;1734119;28;20210;-79
2023/12/28 09:48:12;;;;;;;3.92;1.60;;;;;;;;;;1733816;28;20656;-78
2023/12/28 09:49:04;;;;;;;2.67;1.98;;;;;;;;;;1734172;28;20555;-78
2023/12/28 09:49:55;;;;;;;1.65;1.55;;;;;;;;;;1738162;28;20659;-77
2023/12/28 09:50:47;;;;;;;2.63;1.60;;;;;;;;;;1741279;28;20287;-77
2023/12/28 09:51:38;;;;;;;2.30;1.50;;;;;;;;;;1743248;28;20203;-76
2023/12/28 09:52:30;;;;;;;3.47;1.70;;;;;;;;;;1748362;28;20210;-77
2023/12/28 09:53:23;;;;;;;1.77;1.50;;;;;;;;;;1734335;28;20570;-77
2023/12/28 09:54:15;;;;;;;2.60;1.88;;;;;;;;;;1734382;28;20208;-77
2023/12/28 09:55:08;;;;;;;2.38;1.85;;;;;;;;;;1734089;28;20242;-77
2023/12/28 09:56:01;;;;;;;2.85;2.13;;;;;;;;;;1734971;28;20263;-77
2023/12/28 09:56:53;;;;;;;2.20;1.85;;;;;;;;;;1734111;28;20215;-77
2023/12/28 09:57:45;;;;;;;2.38;2.00;;;;;;;;;;1734642;28;20545;-77
2023/12/28 09:58:38;;;;;;;2.17;1.45;;;;;;;;;;1738867;28;20191;-78
2023/12/28 09:59:29;;;;;;;1.95;1.73;;;;;;;;;;1734892;28;20577;-78
2023/12/28 10:00:21;;;;;;;2.10;1.90;;;;;;;;;;1737533;28;20200;-77
2023/12/28 10:01:15;;;;;;;2.28;1.65;;;;;;;;;;1741633;28;20215;-77
2023/12/28 10:02:07;;;;;;;1.75;1.58;;;;;;;;;;1740554;28;20208;-77
2023/12/28 10:02:58;;;;;;;2.40;1.80;;;;;;;;;;1734228;28;20223;-77
2023/12/28 10:03:50;;;;;;;2.33;2.13;;;;;;;;;;1734270;28;20219;-77
2023/12/28 10:04:41;;;;;;;2.10;1.77;;;;;;;;;;1740590;28;20595;-77
2023/12/28 10:05:32;;;;;;;3.15;2.00;;;;;;;;;;1741083;28;20207;-76
2023/12/28 10:06:24;;;;;;;4.00;2.38;;;;;;;;;;1736487;28;20231;-77
2023/12/28 10:07:15;;;;;;;3.78;1.80;;;;;;;;;;1734092;28;20207;-77
2023/12/28 10:08:06;;;;;;;2.40;1.73;;;;;;;;;;1742682;28;20195;-75
2023/12/28 10:09:00;;;;;;;2.25;1.60;;;;;;;;;;1734123;28;20206;-77
2023/12/28 10:09:52;;;;;;;1.92;1.73;;;;;;;;;;1735969;28;20206;-77
2023/12/28 10:10:50;;;;;;;2.28;1.70;;;;;;;;;;1741313;28;20204;-78
2023/12/28 10:11:42;;;;;;;2.65;1.80;;;;;;;;;;1740538;28;20741;-78
2023/12/28 10:12:33;;;;;;;2.95;1.70;;;;;;;;;;1734779;28;20204;-78
2023/12/28 10:13:26;;;;;;;2.75;1.80;;;;;;;;;;1734771;28;20286;-77
2023/12/28 10:14:17;;;;;;;2.70;1.85;;;;;;;;;;1734238;28;20200;-78
2023/12/28 10:15:09;;;;;;;3.45;1.75;;;;;;;;;;1734555;28;20204;-77
2023/12/28 10:16:03;;;;;;;2.25;1.70;;;;;;;;;;1734756;28;20299;-77
2023/12/28 10:16:54;;;;;;;2.22;1.98;;;;;;;;;;1734627;28;20223;-78
2023/12/28 10:17:47;;;;;;;1.60;1.50;;;;;;;;;;1734737;28;20200;-77
2023/12/28 10:18:42;;;;;;;3.60;2.00;;;;;;;;;;1737566;28;20198;-77
2023/12/28 10:19:33;;;;;;;4.45;1.67;;;;;;;;;;1741415;28;20203;-77
2023/12/28 10:20:27;;;;;;;2.58;1.60;;;;;;;;;;1741642;28;20206;-77
2023/12/28 10:21:18;;;;;;;1.70;1.60;;;;;;;;;;1740375;28;20203;-76
2023/12/28 10:22:10;;;;;;;2.63;1.83;;;;;;;;;;1735042;28;20616;-78
2023/12/28 10:23:02;;;;;;;2.85;1.58;;;;;;;;;;1735547;28;20211;-77
2023/12/28 10:23:54;;;;;;;1.77;1.50;;;;;;;;;;1744154;28;20203;-77
2023/12/28 10:24:48;;;;;;;2.38;1.50;;;;;;;;;;1748772;28;20655;-78
2023/12/28 10:25:39;;;;;;;1.73;1.63;;;;;;;;;;1742716;28;20204;-77
2023/12/28 10:26:31;;;;;;;3.17;1.73;;;;;;;;;;1743399;28;20206;-78
2023/12/28 10:27:22;;;;;;;1.60;1.50;;;;;;;;;;1745439;28;20745;-78
2023/12/28 10:28:15;;;;;;;2.08;1.75;;;;;;;;;;1741748;28;20648;-77
2023/12/28 10:29:07;;;;;;;3.60;2.90;;;;;;;;;;1738811;28;20290;-77
2023/12/28 10:29:58;;;;;;;7.68;6.15;;;;;;;;;;1742324;28;20203;-77
2023/12/28 10:30:54;;;;;;;6.68;5.13;;;;;;;;;;1740267;28;20229;-78
2023/12/28 10:31:49;;;;;;;3.33;2.35;;;;;;;;;;1735599;28;20200;-77
2023/12/28 10:32:40;;;;;;;3.60;1.95;;;;;;;;;;1736889;28;20570;-77
2023/12/28 10:33:36;;;;;;;2.40;1.60;;;;;;;;;;1742371;28;20194;-76
2023/12/28 10:34:27;;;;;;;3.00;1.58;;;;;;;;;;1741972;28;20639;-76
2023/12/28 10:35:19;;;;;;;2.10;1.55;;;;;;;;;;1735313;28;20196;-77
2023/12/28 10:36:10;;;;;;;2.17;1.75;;;;;;;;;;1735380;28;20200;-77
2023/12/28 10:37:03;;;;;;;1.80;1.70;;;;;;;;;;1741422;28;20260;-77
2023/12/28 10:37:56;;;;;;;4.82;2.05;;;;;;;;;;1742638;28;20203;-77
2023/12/28 10:38:48;;;;;;;3.28;1.77;;;;;;;;;;1741582;28;20195;-77
2023/12/28 10:39:41;;;;;;;2.13;1.67;;;;;;;;;;1742230;28;20586;-77
2023/12/28 10:40:36;;;;;;;2.63;1.80;;;;;;;;;;1744191;28;20198;-76
2023/12/28 10:41:29;;;;;;;2.40;1.63;;;;;;;;;;1742118;28;20206;-76
2023/12/28 10:42:26;;;;;;;1.98;1.75;;;;;;;;;;1742169;28;20606;-76
2023/12/28 10:43:19;;;;;;;2.08;1.70;;;;;;;;;;1742399;28;20567;-75
2023/12/28 10:44:11;;;;;;;2.72;1.90;;;;;;;;;;1740143;28;20207;-75
2023/12/28 10:45:05;;;;;;;1.20;1.10;;;;;;;;;;1735337;28;20195;-74
2023/12/28 10:45:57;;;;;;;2.85;1.80;;;;;;;;;;1736035;28;20203;-76
2023/12/28 10:46:51;;;;;;;2.35;2.15;;;;;;;;;;1742256;28;20660;-75
2023/12/28 10:47:44;;;;;;;2.17;1.42;;;;;;;;;;1742179;28;20203;-75
2023/12/28 10:48:37;;;;;;;2.63;1.45;;;;;;;;;;1738118;28;20580;-78
2023/12/28 10:49:30;;;;;;;1.50;1.40;;;;;;;;;;1745042;28;20263;-78
2023/12/28 10:50:23;;;;;;;4.07;1.85;;;;;;;;;;1744440;28;20580;-78
2023/12/28 10:51:17;;;;;;;2.65;1.35;;;;;;;;;;1743501;28;20704;-77
2023/12/28 10:52:09;;;;;;;2.30;1.38;;;;;;;;;;1741669;28;20219;-78
2023/12/28 10:53:05;;;;;;;2.17;1.50;;;;;;;;;;1743729;28;20209;-78
2023/12/28 10:54:02;;;;;;;1.70;1.40;;;;;;;;;;1739788;28;20207;-78
2023/12/28 10:54:57;;;;;;;2.40;1.50;;;;;;;;;;1736891;28;20350;-78
2023/12/28 10:55:54;;;;;;;2.42;1.65;;;;;;;;;;1740804;28;20277;-78
2023/12/28 10:56:47;;;;;;;2.08;1.63;;;;;;;;;;1750423;28;20198;-77
2023/12/28 10:57:41;;;;;;;3.10;2.80;;;;;;;;;;1747509;28;20215;-78
2023/12/28 10:58:36;;;;;;;1.50;1.40;;;;;;;;;;1742983;28;20261;-78
2023/12/28 10:59:31;;;;;;;3.55;1.65;;;;;;;;;;1743968;28;20218;-78
2023/12/28 11:00:26;;;;;;;1.58;1.42;;;;;;;;;;1744080;28;20207;-78
2023/12/28 11:01:18;;;;;;;2.30;1.65;;;;;;;;;;1741713;28;20226;-77
2023/12/28 11:02:11;;;;;;;2.05;1.50;;;;;;;;;;1737114;28;20273;-77
2023/12/28 11:03:03;;;;;;;1.80;1.50;;;;;;;;;;1737476;28;20204;-78
2023/12/28 11:03:59;;;;;;;1.55;1.42;;;;;;;;;;1743900;28;20203;-78
2023/12/28 11:04:52;;;;;;;2.25;1.58;;;;;;;;;;1744260;28;20629;-78
2023/12/28 11:05:44;;;;;;;1.92;1.70;;;;;;;;;;1736755;28;20287;-77
2023/12/28 11:06:35;;;;;;;1.90;1.80;;;;;;;;;;1737057;28;20811;-78
2023/12/28 11:07:32;;;;;;;1.95;1.65;;;;;;;;;;1742035;28;20207;-78
2023/12/28 11:08:23;;;;;;;1.63;1.50;;;;;;;;;;1743352;28;20276;-77
2023/12/28 11:09:15;;;;;;;3.08;2.15;;;;;;;;;;1743586;28;20290;-78
2023/12/28 11:10:10;;;;;;;3.05;1.60;;;;;;;;;;1743277;28;20308;-77
2023/12/28 11:11:03;;;;;;;1.83;1.60;;;;;;;;;;1743348;28;20695;-78
2023/12/28 11:11:55;;;;;;;1.85;1.70;;;;;;;;;;1743961;28;20203;-78